createdAt,value
2018-07-26T00:01:01.894Z,9.67
2018-07-26T00:03:28.920Z,9.30
2018-07-26T00:05:56.009Z,8.60
2018-07-26T00:08:22.969Z,9.43
2018-07-26T00:10:50.061Z,8.03
2018-07-26T00:13:17.072Z,9.50
2018-07-26T00:15:44.084Z,9.20
2018-07-26T00:18:11.085Z,8.30
2018-07-26T00:20:38.057Z,8.13
2018-07-26T00:23:05.301Z,7.50
2018-07-26T00:25:32.348Z,7.77
2018-07-26T00:27:59.329Z,8.90
2018-07-26T00:30:26.349Z,8.80
2018-07-26T00:32:53.387Z,8.67
2018-07-26T00:35:20.373Z,9.23
2018-07-26T00:37:47.345Z,10.40
2018-07-26T00:40:14.348Z,9.63
2018-07-26T00:42:41.336Z,9.13
2018-07-26T00:45:08.345Z,10.20
2018-07-26T00:47:35.432Z,10.17
2018-07-26T00:50:02.586Z,9.23
2018-07-26T00:52:29.586Z,9.60
2018-07-26T00:54:56.609Z,9.70
2018-07-26T00:57:23.877Z,9.40
2018-07-26T00:59:50.846Z,8.63
2018-07-26T01:02:17.849Z,8.83
2018-07-26T01:04:44.905Z,8.57
2018-07-26T01:07:12.258Z,8.47
2018-07-26T01:09:39.348Z,9.10
2018-07-26T01:12:06.457Z,8.63
2018-07-26T01:14:33.582Z,8.67
2018-07-26T01:17:00.570Z,8.80
2018-07-26T01:19:27.613Z,10.57
2018-07-26T01:21:54.618Z,9.97
2018-07-26T01:24:21.649Z,8.80
2018-07-26T01:26:48.652Z,9.73
2018-07-26T01:29:18.888Z,8.60
2018-07-26T01:31:45.974Z,8.77
2018-07-26T01:34:12.948Z,8.90
2018-07-26T01:36:39.969Z,9.30
2018-07-26T01:39:07.757Z,9.33
2018-07-26T01:41:34.709Z,8.87
2018-07-26T01:44:13.141Z,8.50
2018-07-26T01:46:40.145Z,8.20
2018-07-26T01:49:07.176Z,8.00
2018-07-26T01:51:34.173Z,8.43
2018-07-26T01:54:01.429Z,9.17
2018-07-26T01:56:28.428Z,7.73
2018-07-26T01:58:55.389Z,9.10
2018-07-26T02:01:22.362Z,8.20
2018-07-26T02:03:49.456Z,7.40
2018-07-26T02:06:16.542Z,8.70
2018-07-26T02:08:43.525Z,7.37
2018-07-26T02:11:10.509Z,8.70
2018-07-26T02:13:37.493Z,7.87
2018-07-26T02:16:04.481Z,7.87
2018-07-26T02:18:31.503Z,7.83
2018-07-26T02:20:58.521Z,7.97
2018-07-26T02:23:25.580Z,7.17
2018-07-26T02:25:52.956Z,6.53
2018-07-26T02:28:19.937Z,7.00
2018-07-26T02:30:46.953Z,7.90
2018-07-26T02:33:14.110Z,7.97
2018-07-26T02:35:41.136Z,7.40
2018-07-26T02:38:08.789Z,6.73
2018-07-26T02:40:35.813Z,7.37
2018-07-26T02:43:02.847Z,8.17
2018-07-26T02:45:29.834Z,7.20
2018-07-26T02:47:57.033Z,7.10
2018-07-26T02:50:24.049Z,6.40
2018-07-26T02:52:51.005Z,7.37
2018-07-26T02:55:18.006Z,7.00
2018-07-26T02:57:45.006Z,6.93
2018-07-26T03:00:12.007Z,7.10
2018-07-26T03:02:39.110Z,7.67
2018-07-26T03:05:06.627Z,7.60
2018-07-26T03:07:33.684Z,6.27
2018-07-26T03:10:00.661Z,7.40
2018-07-26T03:12:27.661Z,7.30
2018-07-26T03:14:54.630Z,7.23
2018-07-26T03:17:21.662Z,8.00
2018-07-26T03:19:48.657Z,8.53
2018-07-26T03:22:15.689Z,8.30
2018-07-26T03:24:42.681Z,7.73
2018-07-26T03:27:10.244Z,7.77
2018-07-26T03:29:37.238Z,8.23
2018-07-26T03:32:04.237Z,8.17
2018-07-26T03:34:31.192Z,7.73
2018-07-26T03:36:58.182Z,7.73
2018-07-26T03:39:25.205Z,8.13
2018-07-26T03:41:52.225Z,7.83
2018-07-26T03:44:19.213Z,8.70
2018-07-26T03:46:46.261Z,8.93
2018-07-26T03:49:13.277Z,8.40
2018-07-26T03:51:40.264Z,8.43
2018-07-26T03:54:07.237Z,8.20
2018-07-26T03:56:34.270Z,9.10
2018-07-26T03:59:01.370Z,8.23
2018-07-26T04:01:28.358Z,8.97
2018-07-26T04:03:55.342Z,8.77
2018-07-26T04:06:22.624Z,8.10
2018-07-26T04:08:49.621Z,7.80
2018-07-26T04:11:16.622Z,8.90
2018-07-26T04:13:43.584Z,8.50
2018-07-26T04:16:10.613Z,8.00
2018-07-26T04:18:37.617Z,8.17
2018-07-26T04:21:04.617Z,8.00
2018-07-26T04:23:31.646Z,8.50
2018-07-26T04:25:58.656Z,8.03
2018-07-26T04:28:25.645Z,7.87
2018-07-26T04:30:52.693Z,9.33
2018-07-26T04:33:19.690Z,7.97
2018-07-26T04:35:46.669Z,9.10
2018-07-26T04:38:13.677Z,9.33
2018-07-26T04:40:40.669Z,8.17
2018-07-26T04:43:07.721Z,9.20
2018-07-26T04:45:34.701Z,9.20
2018-07-26T04:48:01.693Z,9.60
2018-07-26T04:50:28.644Z,9.33
2018-07-26T04:52:55.730Z,10.47
2018-07-26T04:55:22.697Z,8.60
2018-07-26T04:57:49.688Z,8.70
2018-07-26T05:00:16.761Z,10.20
2018-07-26T05:02:43.760Z,8.30
2018-07-26T05:05:10.716Z,8.57
2018-07-26T05:07:37.904Z,8.30
2018-07-26T05:10:04.975Z,8.67
2018-07-26T05:12:32.324Z,8.53
2018-07-26T05:14:59.547Z,8.17
2018-07-26T05:17:26.549Z,7.90
2018-07-26T05:19:53.584Z,7.63
2018-07-26T05:22:20.570Z,7.47
2018-07-26T05:24:47.585Z,8.03
2018-07-26T05:27:14.837Z,6.83
2018-07-26T05:29:41.812Z,7.53
2018-07-26T05:32:08.879Z,8.00
2018-07-26T05:34:36.025Z,7.23
2018-07-26T05:37:03.049Z,7.40
2018-07-26T05:39:30.085Z,6.87
2018-07-26T05:41:57.129Z,6.90
2018-07-26T05:44:24.093Z,7.50
2018-07-26T05:46:51.052Z,6.90
2018-07-26T05:49:18.149Z,6.40
2018-07-26T05:51:45.173Z,6.17
2018-07-26T05:54:12.170Z,5.80
2018-07-26T05:56:39.174Z,6.67
2018-07-26T05:59:06.181Z,6.40
2018-07-26T06:01:33.339Z,6.20
2018-07-26T06:04:00.337Z,6.20
2018-07-26T06:06:27.354Z,5.20
2018-07-26T06:08:54.344Z,5.53
2018-07-26T06:11:21.325Z,5.30
2018-07-26T06:13:48.353Z,5.23
2018-07-26T06:16:15.354Z,5.47
2018-07-26T06:18:42.501Z,5.80
2018-07-26T06:21:09.601Z,5.73
2018-07-26T06:23:36.583Z,5.43
2018-07-26T06:26:04.164Z,5.97
2018-07-26T06:28:31.188Z,4.83
2018-07-26T06:30:58.331Z,5.60
2018-07-26T06:33:25.373Z,5.40
2018-07-26T06:35:52.316Z,4.90
2018-07-26T06:38:19.290Z,5.23
2018-07-26T06:40:46.256Z,4.87
2018-07-26T06:43:13.264Z,4.40
2018-07-26T06:45:40.230Z,4.83
2018-07-26T06:48:07.437Z,4.57
2018-07-26T06:50:34.445Z,4.20
2018-07-26T06:53:01.528Z,4.40
2018-07-26T06:55:28.460Z,4.57
2018-07-26T06:57:55.434Z,4.70
2018-07-26T07:00:22.404Z,4.43
2018-07-26T07:02:49.434Z,4.47
2018-07-26T07:05:16.416Z,4.10
2018-07-26T07:07:43.392Z,4.40
2018-07-26T07:10:10.453Z,4.90
2018-07-26T07:12:37.421Z,5.60
2018-07-26T07:15:04.690Z,4.27
2018-07-26T07:17:31.693Z,4.60
2018-07-26T07:19:58.773Z,4.13
2018-07-26T07:22:25.755Z,4.20
2018-07-26T07:24:52.817Z,4.77
2018-07-26T07:27:19.793Z,3.90
2018-07-26T07:29:47.518Z,3.80
2018-07-26T07:32:14.524Z,3.50
2018-07-26T07:34:42.046Z,3.73
2018-07-26T07:37:09.073Z,3.87
2018-07-26T07:39:36.064Z,3.80
2018-07-26T07:42:03.098Z,3.43
2018-07-26T07:44:30.101Z,3.10
2018-07-26T07:46:57.069Z,3.17
2018-07-26T07:49:24.101Z,3.27
2018-07-26T07:51:51.117Z,2.87
2018-07-26T07:54:18.141Z,3.40
2018-07-26T07:56:45.114Z,2.97
2018-07-26T07:59:12.264Z,2.77
2018-07-26T08:01:39.232Z,2.40
2018-07-26T08:04:06.248Z,2.30
2018-07-26T08:06:33.236Z,2.13
2018-07-26T08:09:00.213Z,2.07
2018-07-26T08:11:27.190Z,2.10
2018-07-26T08:13:54.202Z,2.60
2018-07-26T08:16:21.257Z,1.97
2018-07-26T08:18:48.343Z,2.30
2018-07-26T08:21:15.370Z,2.40
2018-07-26T08:23:42.341Z,1.90
2018-07-26T08:26:09.331Z,2.43
2018-07-26T08:28:36.386Z,1.90
2018-07-26T08:31:03.459Z,2.30
2018-07-26T08:33:30.500Z,2.00
2018-07-26T08:35:57.453Z,1.77
2018-07-26T08:38:24.549Z,1.73
2018-07-26T08:40:51.557Z,2.30
2018-07-26T08:43:18.522Z,1.87
2018-07-26T08:45:45.545Z,2.17
2018-07-26T08:48:12.606Z,1.60
2018-07-26T08:50:39.596Z,1.63
2018-07-26T08:53:06.605Z,2.03
2018-07-26T08:55:33.733Z,1.90
2018-07-26T08:58:00.758Z,1.97
2018-07-26T09:00:27.775Z,1.63
2018-07-26T09:02:54.760Z,1.90
2018-07-26T09:05:22.122Z,2.13
2018-07-26T09:07:49.129Z,2.20
2018-07-26T09:10:16.339Z,2.10
2018-07-26T09:12:43.345Z,2.40
2018-07-26T09:15:10.393Z,2.10
2018-07-26T09:17:37.393Z,2.63
2018-07-26T09:20:05.009Z,2.43
2018-07-26T09:22:32.121Z,2.50
2018-07-26T09:24:59.142Z,3.20
2018-07-26T09:27:26.145Z,2.50
2018-07-26T09:29:53.130Z,2.30
2018-07-26T09:32:20.214Z,2.60
2018-07-26T09:34:47.192Z,2.60
2018-07-26T09:37:14.167Z,2.70
2018-07-26T09:39:41.332Z,2.40
2018-07-26T09:42:08.373Z,2.40
2018-07-26T09:44:35.425Z,2.43
2018-07-26T09:47:02.407Z,2.07
2018-07-26T09:49:29.420Z,2.47
2018-07-26T09:51:56.569Z,2.33
2018-07-26T09:54:23.554Z,2.53
2018-07-26T09:56:50.615Z,2.20
2018-07-26T09:59:17.610Z,2.10
2018-07-26T10:01:44.599Z,2.83
2018-07-26T10:04:11.576Z,2.60
2018-07-26T10:06:38.748Z,2.33
2018-07-26T10:09:08.466Z,2.70
2018-07-26T10:11:35.480Z,2.60
2018-07-26T10:14:02.475Z,2.50
2018-07-26T10:16:29.482Z,2.20
2018-07-26T10:18:56.445Z,2.50
2018-07-26T10:21:23.583Z,2.43
2018-07-26T10:23:50.580Z,2.67
2018-07-26T10:26:17.577Z,3.50
2018-07-26T10:28:44.623Z,2.60
2018-07-26T10:31:11.613Z,2.83
2018-07-26T10:33:38.604Z,2.40
2018-07-26T10:36:05.650Z,2.73
2018-07-26T10:38:32.637Z,2.97
2018-07-26T10:40:59.809Z,2.77
2018-07-26T10:43:26.885Z,2.87
2018-07-26T10:45:54.025Z,2.80
2018-07-26T10:48:20.981Z,2.77
2018-07-26T10:50:48.029Z,3.00
2018-07-26T10:53:15.133Z,3.03
2018-07-26T10:55:42.129Z,2.80
2018-07-26T10:58:09.104Z,2.80
2018-07-26T11:00:36.131Z,2.80
2018-07-26T11:03:03.165Z,3.00
2018-07-26T11:05:30.173Z,2.60
2018-07-26T11:07:57.248Z,3.60
2018-07-26T11:10:24.389Z,2.67
2018-07-26T11:12:51.380Z,2.80
2018-07-26T11:15:25.214Z,3.00
2018-07-26T11:17:52.193Z,3.70
2018-07-26T11:20:19.552Z,2.70
2018-07-26T11:22:46.738Z,3.00
2018-07-26T11:25:13.720Z,3.10
2018-07-26T11:27:40.730Z,2.97
2018-07-26T11:30:07.745Z,2.63
2018-07-26T11:32:34.761Z,3.17
2018-07-26T11:35:01.825Z,3.13
2018-07-26T11:37:29.020Z,3.23
2018-07-26T11:39:56.081Z,3.60
2018-07-26T11:42:23.085Z,3.77
2018-07-26T11:44:50.076Z,3.53
2018-07-26T11:47:17.712Z,2.80
2018-07-26T11:49:44.877Z,3.03
2018-07-26T11:52:11.910Z,2.90
2018-07-26T11:54:38.889Z,3.23
2018-07-26T11:57:05.885Z,3.00
2018-07-26T11:59:32.926Z,3.50
2018-07-26T12:01:59.920Z,3.30
2018-07-26T12:04:26.901Z,3.30
2018-07-26T12:06:54.242Z,3.50
2018-07-26T12:09:21.273Z,3.50
2018-07-26T12:11:48.260Z,3.80
2018-07-26T12:14:15.285Z,3.80
2018-07-26T12:16:42.290Z,3.60
2018-07-26T12:19:09.255Z,3.67
2018-07-26T12:21:36.289Z,3.10
2018-07-26T12:24:03.305Z,3.47
2018-07-26T12:26:30.367Z,3.57
2018-07-26T12:28:57.433Z,3.20
2018-07-26T12:31:24.597Z,3.10
2018-07-26T12:33:51.581Z,2.90
2018-07-26T12:36:18.606Z,3.80
2018-07-26T12:38:45.590Z,3.60
2018-07-26T12:41:12.683Z,3.50
2018-07-26T12:43:39.791Z,3.60
2018-07-26T12:46:06.798Z,3.73
2018-07-26T12:48:33.788Z,3.23
2018-07-26T12:51:01.197Z,3.70
2018-07-26T12:53:28.188Z,3.93
2018-07-26T12:55:55.201Z,3.90
2018-07-26T12:58:22.193Z,3.67
2018-07-26T13:00:49.781Z,3.50
2018-07-26T13:03:16.844Z,3.83
2018-07-26T13:05:43.857Z,3.70
2018-07-26T13:08:10.846Z,3.73
2018-07-26T13:10:37.859Z,4.20
2018-07-26T13:13:04.902Z,4.17
2018-07-26T13:15:32.053Z,4.20
2018-07-26T13:17:59.065Z,3.90
2018-07-26T13:20:26.300Z,3.80
2018-07-26T13:22:53.313Z,4.40
2018-07-26T13:25:20.312Z,4.07
2018-07-26T13:27:47.457Z,4.23
2018-07-26T13:30:14.457Z,4.47
2018-07-26T13:32:41.472Z,3.57
2018-07-26T13:35:08.476Z,4.20
2018-07-26T13:37:35.481Z,4.10
2018-07-26T13:40:02.715Z,4.53
2018-07-26T13:42:29.805Z,3.80
2018-07-26T13:44:56.840Z,3.90
2018-07-26T13:47:23.842Z,4.30
2018-07-26T13:49:50.809Z,4.60
2018-07-26T13:52:17.841Z,4.40
2018-07-26T13:54:44.821Z,3.67
2018-07-26T13:57:11.811Z,3.67
2018-07-26T13:59:38.797Z,4.10
2018-07-26T14:02:05.817Z,4.30
2018-07-26T14:04:32.849Z,4.60
2018-07-26T14:06:59.840Z,3.97
2018-07-26T14:09:26.852Z,3.80
2018-07-26T14:11:53.860Z,3.83
2018-07-26T14:14:21.113Z,3.73
2018-07-26T14:16:48.111Z,3.50
2018-07-26T14:19:15.117Z,4.00
2018-07-26T14:21:42.120Z,3.50
2018-07-26T14:24:14.992Z,3.77
2018-07-26T14:26:42.073Z,4.00
2018-07-26T14:29:09.085Z,3.83
2018-07-26T14:31:36.073Z,3.93
2018-07-26T14:34:03.105Z,4.27
2018-07-26T14:36:30.082Z,3.50
2018-07-26T14:38:57.084Z,4.40
2018-07-26T14:41:24.069Z,4.17
2018-07-26T14:43:51.093Z,4.40
2018-07-26T14:46:18.432Z,4.03
2018-07-26T14:48:45.433Z,4.10
2018-07-26T14:51:12.446Z,4.33
2018-07-26T14:53:39.445Z,4.30
2018-07-26T14:56:06.449Z,3.70
2018-07-26T14:58:33.445Z,4.20
2018-07-26T15:01:00.506Z,4.20
2018-07-26T15:03:27.448Z,4.50
2018-07-26T15:05:54.430Z,4.30
2018-07-26T15:08:21.413Z,4.13
2018-07-26T15:10:48.452Z,3.80
2018-07-26T15:13:15.493Z,4.37
2018-07-26T15:15:42.477Z,3.93
2018-07-26T15:18:09.556Z,4.70
2018-07-26T15:20:36.656Z,4.17
2018-07-26T15:23:03.640Z,4.10
2018-07-26T15:25:30.600Z,4.40
2018-07-26T15:27:57.617Z,4.17
2018-07-26T15:30:24.653Z,4.30
2018-07-26T15:32:52.650Z,4.37
2018-07-26T15:35:19.657Z,3.80
2018-07-26T15:37:47.202Z,4.30
2018-07-26T15:40:14.208Z,4.00
2018-07-26T15:42:41.176Z,3.93
2018-07-26T15:45:08.529Z,4.87
2018-07-26T15:47:35.497Z,5.60
2018-07-26T15:50:02.629Z,5.70
2018-07-26T15:52:29.648Z,5.93
2018-07-26T15:54:56.665Z,6.30
2018-07-26T15:57:23.917Z,5.80
2018-07-26T15:59:50.985Z,6.37
2018-07-26T16:02:18.036Z,5.80
2018-07-26T16:04:45.693Z,5.73
2018-07-26T16:07:12.761Z,6.23
2018-07-26T16:09:39.728Z,5.60
2018-07-26T16:12:06.811Z,5.70
2018-07-26T16:14:34.029Z,6.33
2018-07-26T16:17:01.072Z,6.20
2018-07-26T16:19:28.073Z,6.73
2018-07-26T16:21:55.232Z,6.40
2018-07-26T16:24:22.254Z,7.00
2018-07-26T16:26:49.317Z,6.77
2018-07-26T16:29:16.323Z,6.83
2018-07-26T16:31:43.336Z,6.47
2018-07-26T16:34:10.505Z,6.40
2018-07-26T16:36:37.453Z,7.00
2018-07-26T16:39:07.393Z,6.60
2018-07-26T16:41:35.389Z,6.60
2018-07-26T16:44:02.663Z,6.47
2018-07-26T16:46:30.594Z,6.47
2018-07-26T16:48:57.629Z,6.30
2018-07-26T16:51:24.661Z,7.20
2018-07-26T16:53:51.708Z,6.17
2018-07-26T16:56:18.839Z,6.30
2018-07-26T16:58:45.906Z,6.63
2018-07-26T17:01:12.893Z,6.60
2018-07-26T17:03:39.905Z,6.80
2018-07-26T17:06:06.973Z,6.60
2018-07-26T17:08:33.953Z,6.30
2018-07-26T17:11:01.090Z,6.27
2018-07-26T17:13:28.292Z,6.10
2018-07-26T17:15:55.357Z,6.53
2018-07-26T17:18:22.989Z,6.07
2018-07-26T17:20:50.117Z,6.60
2018-07-26T17:23:17.140Z,6.23
2018-07-26T17:25:44.298Z,6.17
2018-07-26T17:28:12.385Z,6.33
2018-07-26T17:30:39.582Z,6.03
2018-07-26T17:33:06.989Z,6.40
2018-07-26T17:35:34.013Z,6.63
2018-07-26T17:38:01.579Z,5.80
2018-07-26T17:40:29.157Z,6.43
2018-07-26T17:42:56.163Z,6.83
2018-07-26T17:45:23.249Z,6.67
2018-07-26T17:47:50.277Z,6.27
2018-07-26T17:50:17.355Z,6.60
2018-07-26T17:52:44.429Z,6.50
2018-07-26T17:55:12.141Z,6.60
2018-07-26T17:57:39.686Z,6.03
2018-07-26T18:00:08.714Z,7.10
2018-07-26T18:02:35.781Z,6.67
2018-07-26T18:05:03.058Z,6.30
2018-07-26T18:07:30.053Z,5.80
2018-07-26T18:09:57.056Z,6.70
2018-07-26T18:12:24.056Z,6.07
2018-07-26T18:14:51.055Z,6.63
2018-07-26T18:17:18.727Z,6.50
2018-07-26T18:19:46.115Z,6.30
2018-07-26T18:22:13.849Z,6.00
2018-07-26T18:24:40.905Z,5.80
2018-07-26T18:27:08.072Z,6.17
2018-07-26T18:29:35.277Z,5.90
2018-07-26T18:32:02.348Z,5.93
2018-07-26T18:34:29.439Z,5.97
2018-07-26T18:36:56.465Z,6.20
2018-07-26T18:39:23.464Z,5.63
2018-07-26T18:41:50.480Z,5.80
2018-07-26T18:44:17.437Z,5.67
2018-07-26T18:46:44.417Z,5.47
2018-07-26T18:49:11.880Z,5.83
2018-07-26T18:51:38.881Z,5.80
2018-07-26T18:54:05.905Z,5.50
2018-07-26T18:56:32.910Z,6.60
2018-07-26T18:58:59.945Z,5.83
2018-07-26T19:01:26.968Z,6.07
2018-07-26T19:03:54.158Z,5.97
2018-07-26T19:06:21.174Z,6.67
2018-07-26T19:08:48.206Z,6.80
2018-07-26T19:11:15.188Z,6.67
2018-07-26T19:13:42.213Z,6.13
2018-07-26T19:16:09.293Z,6.60
2018-07-26T19:18:42.981Z,6.73
2018-07-26T19:21:10.037Z,5.83
2018-07-26T19:23:37.429Z,5.97
2018-07-26T19:26:04.729Z,6.10
2018-07-26T19:28:31.714Z,5.63
2018-07-26T19:30:58.873Z,6.20
2018-07-26T19:33:25.968Z,6.30
2018-07-26T19:35:52.954Z,6.10
2018-07-26T19:38:19.949Z,6.30
2018-07-26T19:40:46.989Z,5.67
2018-07-26T19:43:14.101Z,5.50
2018-07-26T19:45:41.282Z,5.80
2018-07-26T19:48:08.389Z,5.30
2018-07-26T19:50:35.360Z,6.97
2018-07-26T19:53:02.477Z,6.17
2018-07-26T19:55:29.888Z,5.57
2018-07-26T19:57:56.869Z,6.20
2018-07-26T20:00:24.561Z,6.00
2018-07-26T20:02:51.585Z,6.60
2018-07-26T20:05:18.621Z,6.77
2018-07-26T20:07:45.672Z,6.27
2018-07-26T20:10:12.989Z,5.67
2018-07-26T20:12:40.526Z,6.23
2018-07-26T20:15:07.892Z,6.50
2018-07-26T20:17:35.035Z,6.40
2018-07-26T20:20:02.265Z,6.80
2018-07-26T20:22:29.272Z,5.97
2018-07-26T20:24:56.305Z,6.07
2018-07-26T20:27:23.557Z,6.40
2018-07-26T20:29:50.605Z,6.27
2018-07-26T20:32:17.637Z,6.80
2018-07-26T20:34:44.857Z,6.00
2018-07-26T20:37:11.926Z,6.27
2018-07-26T20:39:39.044Z,6.63
2018-07-26T20:42:06.052Z,7.67
2018-07-26T20:44:33.042Z,6.73
2018-07-26T20:47:00.101Z,7.03
2018-07-26T20:49:27.093Z,7.23
2018-07-26T20:51:54.809Z,7.23
2018-07-26T20:54:21.973Z,6.23
2018-07-26T20:56:49.084Z,6.37
2018-07-26T20:59:16.065Z,6.40
2018-07-26T21:01:43.068Z,7.77
2018-07-26T21:04:10.049Z,6.13
2018-07-26T21:06:37.074Z,6.57
2018-07-26T21:09:07.393Z,7.60
2018-07-26T21:11:34.470Z,7.53
2018-07-26T21:14:01.422Z,7.13
2018-07-26T21:16:28.449Z,8.23
2018-07-26T21:18:55.477Z,7.47
2018-07-26T21:21:22.464Z,7.47
2018-07-26T21:23:49.484Z,7.00
2018-07-26T21:26:16.465Z,7.50
2018-07-26T21:28:43.473Z,7.17
2018-07-26T21:31:10.469Z,6.87
2018-07-26T21:33:37.593Z,8.17
2018-07-26T21:36:04.766Z,7.37
2018-07-26T21:38:31.874Z,6.93
2018-07-26T21:40:58.898Z,7.53
2018-07-26T21:43:25.885Z,8.00
2018-07-26T21:45:52.842Z,7.10
2018-07-26T21:48:20.106Z,6.90
2018-07-26T21:50:47.137Z,7.80
2018-07-26T21:53:14.113Z,8.50
2018-07-26T21:55:41.360Z,7.97
2018-07-26T21:58:08.329Z,8.37
2018-07-26T22:01:08.647Z,8.53
2018-07-26T22:03:35.679Z,8.13
2018-07-26T22:06:02.685Z,8.63
2018-07-26T22:08:29.892Z,8.13
2018-07-26T22:10:56.889Z,8.10
2018-07-26T22:13:23.863Z,7.73
2018-07-26T22:15:51.802Z,8.20
2018-07-26T22:18:18.978Z,8.20
2018-07-26T22:20:46.017Z,7.80
2018-07-26T22:23:13.018Z,7.60
2018-07-26T22:25:43.914Z,8.47
2018-07-26T22:28:10.929Z,8.33
2018-07-26T22:30:37.916Z,9.33
2018-07-26T22:33:04.890Z,8.30
2018-07-26T22:35:31.845Z,8.40
2018-07-26T22:37:58.840Z,9.03
2018-07-26T22:40:25.873Z,8.70
2018-07-26T22:42:52.929Z,9.03
2018-07-26T22:45:19.905Z,9.30
2018-07-26T22:47:46.860Z,8.00
2018-07-26T22:50:14.112Z,7.50
2018-07-26T22:52:41.207Z,9.37
2018-07-26T22:55:08.621Z,8.43
2018-07-26T22:57:35.597Z,8.37
2018-07-26T23:00:02.696Z,7.50
2018-07-26T23:02:29.709Z,7.67
2018-07-26T23:04:56.649Z,7.70
2018-07-26T23:07:23.712Z,8.30
2018-07-26T23:09:50.709Z,8.00
2018-07-26T23:12:17.673Z,9.60
2018-07-26T23:14:44.721Z,9.60
2018-07-26T23:17:12.389Z,8.30
2018-07-26T23:19:39.357Z,10.23
2018-07-26T23:22:06.364Z,9.33
2018-07-26T23:24:33.357Z,9.03
2018-07-26T23:27:00.698Z,9.30
2018-07-26T23:29:27.656Z,9.10
2018-07-26T23:31:54.681Z,8.10
2018-07-26T23:34:21.652Z,8.17
2018-07-26T23:36:48.628Z,7.17
2018-07-26T23:39:15.589Z,8.40
2018-07-26T23:41:42.552Z,8.43
2018-07-26T23:44:09.640Z,7.77
2018-07-26T23:46:36.953Z,7.80
2018-07-26T23:49:03.990Z,9.17
2018-07-26T23:51:31.161Z,8.70
2018-07-26T23:53:58.124Z,9.67
2018-07-26T23:56:25.137Z,8.70
2018-07-26T23:58:52.209Z,8.07
